CEB901 RPLL-RPVE
Flight info
| Callsign | CEB901 |
|---|---|
| Flight time | 0h 34m |
| Altitude | 23000 |
| Route | VERDE2V VERDE W24 TAPER TAPER7A |
| Aircraft | A320/M-SDE3FGHIRWY/LB1 |
Departure
| Time | 2026-04-30 13:07 |
|---|---|
| Airport | Ninoy Aquino International Airport (RPLL) |
Arrival
| Time | 2026-04-30 13:41 |
|---|---|
| Airport | Godofredo P. Ramos Airport (RPVE) |
| Time | Latitude | Longitude | Altitude | Speed | Heading |
|---|---|---|---|---|---|
| 2026-04-30 12:37 | 14.52236 | 121.00944 | 62 ft | 0 kts | 45° |
| 2026-04-30 12:47 | 14.52235 | 121.00943 | 59 ft | 2 kts | 45° |
| 2026-04-30 12:48 | 14.52218 | 121.00924 | 61 ft | 4 kts | 45° |
| 2026-04-30 12:48 | 14.52199 | 121.00904 | 66 ft | 4 kts | 45° |
| 2026-04-30 12:48 | 14.52183 | 121.00888 | 61 ft | 4 kts | 42° |
| 2026-04-30 12:48 | 14.52161 | 121.00876 | 62 ft | 4 kts | 354° |
| 2026-04-30 12:49 | 14.52139 | 121.00886 | 61 ft | 3 kts | 315° |
| 2026-04-30 12:49 | 14.52151 | 121.00873 | 64 ft | 4 kts | 315° |
| 2026-04-30 12:49 | 14.52164 | 121.00860 | 59 ft | 0 kts | 315° |
| 2026-04-30 12:55 | 14.52167 | 121.00857 | 63 ft | 2 kts | 315° |
| 2026-04-30 12:55 | 14.52178 | 121.00845 | 64 ft | 3 kts | 315° |
| 2026-04-30 12:55 | 14.52194 | 121.00828 | 67 ft | 3 kts | 315° |
| 2026-04-30 12:55 | 14.52210 | 121.00812 | 63 ft | 4 kts | 315° |
| 2026-04-30 12:56 | 14.52240 | 121.00781 | 64 ft | 7 kts | 315° |
| 2026-04-30 12:56 | 14.52282 | 121.00738 | 65 ft | 10 kts | 315° |
| 2026-04-30 12:56 | 14.52336 | 121.00683 | 66 ft | 12 kts | 315° |
| 2026-04-30 12:56 | 14.52394 | 121.00622 | 62 ft | 11 kts | 315° |
| 2026-04-30 12:57 | 14.52445 | 121.00570 | 62 ft | 10 kts | 315° |
| 2026-04-30 12:57 | 14.52491 | 121.00524 | 64 ft | 8 kts | 315° |
| 2026-04-30 12:57 | 14.52480 | 121.00486 | 62 ft | 5 kts | 222° |
| 2026-04-30 12:57 | 14.52456 | 121.00461 | 67 ft | 4 kts | 226° |
| 2026-04-30 12:58 | 14.52439 | 121.00442 | 60 ft | 3 kts | 226° |
| 2026-04-30 12:58 | 14.52430 | 121.00433 | 62 ft | 0 kts | 226° |
| 2026-04-30 12:58 | 14.52425 | 121.00427 | 64 ft | 4 kts | 226° |
| 2026-04-30 12:59 | 14.52394 | 121.00393 | 67 ft | 7 kts | 227° |
| 2026-04-30 12:59 | 14.52359 | 121.00404 | 65 ft | 0 kts | 134° |
| 2026-04-30 13:06 | 14.52327 | 121.00438 | 64 ft | 30 kts | 134° |
| 2026-04-30 13:06 | 14.51997 | 121.00780 | 69 ft | 101 kts | 135° |
| 2026-04-30 13:06 | 14.51365 | 121.01435 | 86 ft | 153 kts | 134° |
| 2026-04-30 13:06 | 14.50584 | 121.02228 | 631 ft | 160 kts | 137° |
| 2026-04-30 13:07 | 14.49738 | 121.03041 | 1202 ft | 172 kts | 135° |
| 2026-04-30 13:07 | 14.48851 | 121.03911 | 1898 ft | 178 kts | 132° |
| 2026-04-30 13:07 | 14.47942 | 121.04858 | 2283 ft | 196 kts | 131° |
| 2026-04-30 13:07 | 14.46927 | 121.05934 | 2623 ft | 221 kts | 131° |
| 2026-04-30 13:08 | 14.45802 | 121.07144 | 2957 ft | 245 kts | 131° |
| 2026-04-30 13:08 | 14.44584 | 121.08473 | 3433 ft | 262 kts | 131° |
| 2026-04-30 13:08 | 14.43324 | 121.09859 | 4216 ft | 266 kts | 131° |
| 2026-04-30 13:08 | 14.42047 | 121.11264 | 5003 ft | 271 kts | 131° |
| 2026-04-30 13:09 | 14.40749 | 121.12694 | 5764 ft | 276 kts | 131° |
| 2026-04-30 13:09 | 14.39403 | 121.14128 | 6540 ft | 281 kts | 135° |
| 2026-04-30 13:09 | 14.37846 | 121.15368 | 7293 ft | 287 kts | 151° |
| 2026-04-30 13:09 | 14.35918 | 121.15943 | 8076 ft | 293 kts | 175° |
| 2026-04-30 13:10 | 14.33872 | 121.15771 | 8890 ft | 297 kts | 186° |
| 2026-04-30 13:10 | 14.31821 | 121.15458 | 9718 ft | 299 kts | 186° |
| 2026-04-30 13:10 | 14.29748 | 121.15137 | 10302 ft | 309 kts | 186° |
| 2026-04-30 13:10 | 14.27545 | 121.14798 | 10471 ft | 332 kts | 186° |
| 2026-04-30 13:11 | 14.25189 | 121.14437 | 10722 ft | 351 kts | 186° |
| 2026-04-30 13:11 | 14.22774 | 121.14070 | 11264 ft | 358 kts | 186° |
| 2026-04-30 13:11 | 14.20297 | 121.13695 | 11909 ft | 361 kts | 186° |
| 2026-04-30 13:11 | 14.17802 | 121.13319 | 12545 ft | 364 kts | 186° |
| 2026-04-30 13:12 | 14.15281 | 121.12941 | 13163 ft | 368 kts | 187° |
| 2026-04-30 13:12 | 14.12737 | 121.12556 | 13775 ft | 371 kts | 187° |
| 2026-04-30 13:12 | 14.10136 | 121.12161 | 14336 ft | 374 kts | 187° |
| 2026-04-30 13:13 | 14.04985 | 121.11384 | 15456 ft | 379 kts | 187° |
| 2026-04-30 13:13 | 14.02371 | 121.10990 | 15998 ft | 382 kts | 187° |
| 2026-04-30 13:13 | 13.97069 | 121.10191 | 17040 ft | 387 kts | 187° |
| 2026-04-30 13:14 | 13.94395 | 121.09791 | 17557 ft | 390 kts | 187° |
| 2026-04-30 13:14 | 13.91697 | 121.09387 | 18081 ft | 393 kts | 187° |
| 2026-04-30 13:14 | 13.86252 | 121.08564 | 18974 ft | 398 kts | 187° |
| 2026-04-30 13:15 | 13.83496 | 121.08148 | 19406 ft | 401 kts | 187° |
| 2026-04-30 13:15 | 13.77942 | 121.07316 | 20250 ft | 406 kts | 187° |
| 2026-04-30 13:15 | 13.75134 | 121.06894 | 20673 ft | 409 kts | 187° |
| 2026-04-30 13:16 | 13.72301 | 121.06467 | 21109 ft | 411 kts | 187° |
| 2026-04-30 13:16 | 13.69465 | 121.06043 | 21520 ft | 413 kts | 187° |
| 2026-04-30 13:16 | 13.66608 | 121.05617 | 21947 ft | 416 kts | 187° |
| 2026-04-30 13:17 | 13.60855 | 121.04752 | 22743 ft | 420 kts | 187° |
| 2026-04-30 13:17 | 13.57952 | 121.04318 | 22945 ft | 422 kts | 187° |
| 2026-04-30 13:17 | 13.53089 | 121.03925 | 22989 ft | 423 kts | 175° |
| 2026-04-30 13:18 | 13.49242 | 121.04694 | 22990 ft | 421 kts | 160° |
| 2026-04-30 13:18 | 13.44127 | 121.07562 | 22992 ft | 421 kts | 145° |
| 2026-04-30 13:18 | 13.41716 | 121.09264 | 22995 ft | 421 kts | 145° |
| 2026-04-30 13:19 | 13.39301 | 121.10963 | 22998 ft | 421 kts | 145° |
| 2026-04-30 13:19 | 13.36886 | 121.12658 | 22995 ft | 421 kts | 145° |
| 2026-04-30 13:19 | 13.34464 | 121.14356 | 22997 ft | 421 kts | 145° |
| 2026-04-30 13:19 | 13.32045 | 121.16051 | 22997 ft | 421 kts | 145° |
| 2026-04-30 13:20 | 13.29657 | 121.17723 | 22995 ft | 422 kts | 145° |
| 2026-04-30 13:20 | 13.27232 | 121.19422 | 22998 ft | 422 kts | 145° |
| 2026-04-30 13:20 | 13.24808 | 121.21119 | 22996 ft | 422 kts | 145° |
| 2026-04-30 13:20 | 13.22382 | 121.22818 | 22994 ft | 422 kts | 145° |
| 2026-04-30 13:21 | 13.19962 | 121.24516 | 22994 ft | 422 kts | 145° |
| 2026-04-30 13:21 | 13.17541 | 121.26223 | 22994 ft | 422 kts | 145° |
| 2026-04-30 13:21 | 13.15118 | 121.27928 | 22993 ft | 422 kts | 145° |
| 2026-04-30 13:22 | 13.10268 | 121.31327 | 22995 ft | 422 kts | 145° |
| 2026-04-30 13:22 | 13.07842 | 121.33026 | 22996 ft | 422 kts | 145° |
| 2026-04-30 13:22 | 13.02991 | 121.36414 | 22991 ft | 422 kts | 145° |
| 2026-04-30 13:23 | 13.00573 | 121.38106 | 22994 ft | 421 kts | 145° |
| 2026-04-30 13:23 | 12.95729 | 121.41495 | 22993 ft | 421 kts | 145° |
| 2026-04-30 13:24 | 12.90894 | 121.44871 | 22987 ft | 420 kts | 144° |
| 2026-04-30 13:24 | 12.86071 | 121.48244 | 22861 ft | 415 kts | 144° |
| 2026-04-30 13:25 | 12.82153 | 121.50985 | 22438 ft | 406 kts | 144° |
| 2026-04-30 13:25 | 12.76759 | 121.54757 | 21856 ft | 402 kts | 144° |
| 2026-04-30 13:26 | 12.69873 | 121.59551 | 21002 ft | 391 kts | 144° |
| 2026-04-30 13:26 | 12.65418 | 121.62654 | 20077 ft | 385 kts | 144° |
| 2026-04-30 13:27 | 12.61022 | 121.65721 | 19131 ft | 380 kts | 144° |
| 2026-04-30 13:28 | 12.54491 | 121.70283 | 17625 ft | 377 kts | 144° |
| 2026-04-30 13:28 | 12.50174 | 121.73289 | 16634 ft | 373 kts | 144° |
| 2026-04-30 13:28 | 12.48033 | 121.74775 | 16146 ft | 372 kts | 144° |
| 2026-04-30 13:29 | 12.43769 | 121.77742 | 15158 ft | 370 kts | 144° |
| 2026-04-30 13:29 | 12.39508 | 121.80673 | 14174 ft | 369 kts | 148° |
| 2026-04-30 13:30 | 12.32872 | 121.81938 | 12756 ft | 374 kts | 187° |
| 2026-04-30 13:31 | 12.26939 | 121.80651 | 11478 ft | 370 kts | 190° |
| 2026-04-30 13:31 | 12.20312 | 121.79229 | 10414 ft | 354 kts | 189° |
| 2026-04-30 13:32 | 12.15681 | 121.78224 | 10183 ft | 328 kts | 189° |
| 2026-04-30 13:32 | 12.11375 | 121.77290 | 9934 ft | 306 kts | 189° |
| 2026-04-30 13:33 | 12.07238 | 121.76398 | 9173 ft | 301 kts | 189° |
| 2026-04-30 13:33 | 12.03183 | 121.75523 | 8102 ft | 295 kts | 189° |
| 2026-04-30 13:34 | 12.01206 | 121.75095 | 7696 ft | 297 kts | 189° |
| 2026-04-30 13:34 | 11.95196 | 121.73798 | 6473 ft | 297 kts | 189° |
| 2026-04-30 13:35 | 11.93174 | 121.73363 | 6047 ft | 294 kts | 188° |
| 2026-04-30 13:35 | 11.89362 | 121.73816 | 5256 ft | 265 kts | 149° |
| 2026-04-30 13:36 | 11.86208 | 121.75456 | 4522 ft | 245 kts | 148° |
| 2026-04-30 13:36 | 11.84757 | 121.76291 | 4174 ft | 233 kts | 133° |
| 2026-04-30 13:36 | 11.84241 | 121.79028 | 3566 ft | 200 kts | 62° |
| 2026-04-30 13:37 | 11.84926 | 121.80234 | 3287 ft | 193 kts | 62° |
| 2026-04-30 13:37 | 11.86090 | 121.82582 | 2771 ft | 174 kts | 64° |
| 2026-04-30 13:38 | 11.87088 | 121.84626 | 2305 ft | 147 kts | 64° |
| 2026-04-30 13:38 | 11.87534 | 121.85525 | 2095 ft | 142 kts | 64° |
| 2026-04-30 13:38 | 11.88411 | 121.87297 | 1728 ft | 138 kts | 64° |
| 2026-04-30 13:39 | 11.89284 | 121.89053 | 1334 ft | 138 kts | 63° |
| 2026-04-30 13:39 | 11.90159 | 121.90800 | 981 ft | 137 kts | 63° |
| 2026-04-30 13:40 | 11.90592 | 121.91667 | 789 ft | 137 kts | 63° |
| 2026-04-30 13:40 | 11.91028 | 121.92541 | 612 ft | 139 kts | 63° |
| 2026-04-30 13:40 | 11.91453 | 121.93429 | 408 ft | 140 kts | 66° |
| 2026-04-30 13:40 | 11.91902 | 121.94310 | 208 ft | 140 kts | 64° |
| 2026-04-30 13:41 | 11.92348 | 121.95181 | 43 ft | 134 kts | 63° |
| 2026-04-30 13:41 | 11.92704 | 121.95893 | 26 ft | 76 kts | 62° |
| 2026-04-30 13:41 | 11.92836 | 121.96157 | 27 ft | 29 kts | 63° |
| 2026-04-30 13:41 | 11.92922 | 121.96328 | 25 ft | 21 kts | 63° |
| 2026-04-30 13:42 | 11.92965 | 121.96411 | 25 ft | 12 kts | 63° |
| 2026-04-30 13:42 | 11.92962 | 121.96457 | 25 ft | 5 kts | 148° |
| 2026-04-30 13:42 | 11.92922 | 121.96478 | 27 ft | 3 kts | 153° |
| 2026-04-30 13:43 | 11.92897 | 121.96491 | 29 ft | 6 kts | 153° |
| 2026-04-30 13:43 | 11.92849 | 121.96516 | 26 ft | 10 kts | 153° |
| 2026-04-30 13:43 | 11.92798 | 121.96520 | 26 ft | 7 kts | 224° |
| 2026-04-30 13:43 | 11.92771 | 121.96465 | 26 ft | 10 kts | 244° |
| 2026-04-30 13:44 | 11.92740 | 121.96406 | 30 ft | 8 kts | 244° |
| 2026-04-30 13:44 | 11.92721 | 121.96364 | 26 ft | 3 kts | 244° |
| 2026-04-30 13:44 | 11.92708 | 121.96353 | 26 ft | 3 kts | 205° |
| 2026-04-30 13:44 | 11.92692 | 121.96360 | 26 ft | 1 kts | 147° |
| 2026-04-30 13:45 | 11.92678 | 121.96368 | 26 ft | 1 kts | 151° |
| 2026-04-30 13:45 | 11.92673 | 121.96371 | 26 ft | 0 kts | 152° |